Time;durP1;ratioP1;P1;durP2;ratioP2;P2;SDS_P1;SDS_P2;PMS_P1;PMS_P2;Temp;Humidity;BMP_temperature;BMP_pressure;BME280_temperature;BME280_humidity;BME280_pressure;Samples;Min_cycle;Max_cycle;Signal;HPM_P1;HPM_P2
2023/08/18 00:02:37;;;;;;;8.48;7.07;;;;;;;20.56;62.56;99654.28;10386620;28;20635;-68
2023/08/18 00:07:40;;;;;;;7.78;7.07;;;;;;;21.08;61.47;99634.72;10381603;28;20247;-69
2023/08/18 00:12:42;;;;;;;7.97;6.75;;;;;;;20.78;62.76;99630.63;10387287;28;20751;-68
2023/08/18 00:17:44;;;;;;;9.85;7.15;;;;;;;20.94;61.66;99637.03;10386874;28;20260;-69
2023/08/18 00:22:45;;;;;;;9.73;7.30;;;;;;;21.11;61.28;99638.84;10386154;28;20224;-69
2023/08/18 00:27:47;;;;;;;8.15;7.25;;;;;;;21.31;61.24;99635.47;10384889;28;20233;-69
2023/08/18 00:32:49;;;;;;;7.65;6.75;;;;;;;21.14;61.26;99643.72;10382864;28;20375;-68
2023/08/18 00:37:51;;;;;;;10.20;7.30;;;;;;;20.98;62.29;99642.78;10388268;28;20923;-66
2023/08/18 00:42:52;;;;;;;8.07;7.28;;;;;;;21.92;59.48;99638.59;10386130;28;20232;-69
2023/08/18 00:47:54;;;;;;;8.90;7.38;;;;;;;21.12;61.11;99662.22;10390712;28;20264;-70
2023/08/18 00:52:58;;;;;;;9.15;7.72;;;;;;;20.49;62.49;99658.00;10389551;28;20282;-69
2023/08/18 00:58:02;;;;;;;8.80;7.57;;;;;;;20.34;62.82;99652.38;10389529;28;20243;-69
2023/08/18 01:03:04;;;;;;;8.48;7.57;;;;;;;20.63;62.88;99633.16;10386298;28;20236;-68
2023/08/18 01:08:06;;;;;;;9.55;7.85;;;;;;;20.54;62.68;99631.97;10390774;28;20244;-68
2023/08/18 01:13:13;;;;;;;10.35;8.15;;;;;;;20.95;62.05;99614.22;10384644;28;20320;-68
2023/08/18 01:18:16;;;;;;;9.38;8.35;;;;;;;20.45;62.91;99637.84;10381604;28;20239;-68
2023/08/18 01:23:17;;;;;;;9.88;8.88;;;;;;;20.24;64.08;99638.69;10387097;28;20220;-68
2023/08/18 01:28:19;;;;;;;9.82;8.93;;;;;;;20.66;63.44;99624.47;10382889;28;20232;-67
2023/08/18 01:33:31;;;;;;;11.13;8.95;;;;;;;21.49;61.17;99612.47;10387540;28;20382;-67
2023/08/18 01:38:34;;;;;;;9.98;8.98;;;;;;;21.34;60.55;99640.34;10387636;28;20229;-67
2023/08/18 01:43:35;;;;;;;10.20;8.90;;;;;;;21.26;61.58;99632.69;10386444;28;20243;-67
2023/08/18 01:48:37;;;;;;;12.57;9.90;;;;;;;21.15;61.58;99650.81;10383502;28;20239;-68
2023/08/18 01:53:39;;;;;;;10.13;8.55;;;;;;;21.26;60.20;99666.16;10384862;28;20327;-68
2023/08/18 01:58:41;;;;;;;10.18;9.18;;;;;;;21.61;60.29;99643.06;10383038;28;20237;-68
2023/08/18 02:03:43;;;;;;;9.70;8.73;;;;;;;22.85;56.69;99658.09;10384158;28;20323;-67
2023/08/18 02:08:44;;;;;;;10.32;8.65;;;;;;;22.31;57.56;99675.63;10385065;28;20763;-68
2023/08/18 02:13:46;;;;;;;9.32;8.40;;;;;;;21.81;59.30;99666.84;10379880;28;20252;-69
2023/08/18 02:18:49;;;;;;;9.52;8.35;;;;;;;22.60;56.93;99667.84;10380829;28;20236;-68
2023/08/18 02:23:51;;;;;;;10.00;9.00;;;;;;;23.24;55.85;99647.50;10379160;28;20240;-67
2023/08/18 02:28:52;;;;;;;10.52;8.80;;;;;;;22.80;56.07;99658.09;10383700;28;20239;-67
2023/08/18 02:33:54;;;;;;;11.07;8.93;;;;;;;22.39;56.01;99677.03;10381011;28;20248;-67
2023/08/18 02:38:56;;;;;;;9.70;8.70;;;;;;;22.89;55.60;99657.28;10383368;28;20228;-68
2023/08/18 02:43:57;;;;;;;11.63;9.50;;;;;;;22.15;58.48;99651.03;10381412;28;20374;-67
2023/08/18 02:48:59;;;;;;;10.88;9.70;;;;;;;22.89;56.31;99621.81;10381856;28;20612;-68
2023/08/18 02:54:01;;;;;;;10.45;9.38;;;;;;;22.83;56.54;99630.28;10377787;28;20235;-67
2023/08/18 02:59:02;;;;;;;10.55;9.52;;;;;;;21.26;59.77;99654.47;10382226;28;20311;-67
2023/08/18 03:04:05;;;;;;;11.60;10.40;;;;;;;20.44;61.81;99646.25;10344522;28;20287;-67
2023/08/18 03:09:07;;;;;;;12.38;11.02;;;;;;;20.79;61.26;99615.16;10371934;28;20229;-67
2023/08/18 03:14:09;;;;;;;11.65;10.45;;;;;;;20.44;62.13;99628.03;10378035;28;20318;-68
2023/08/18 03:19:11;;;;;;;11.77;10.55;;;;;;;21.55;60.07;99589.66;10382135;28;20247;-67
2023/08/18 03:24:13;;;;;;;12.90;11.63;;;;;;;20.63;61.41;99623.13;10338604;28;20737;-67
2023/08/18 03:29:15;;;;;;;14.45;12.38;;;;;;;20.97;61.71;99595.72;10343512;28;20232;-68
2023/08/18 03:34:16;;;;;;;17.35;11.15;;;;;;;20.61;62.06;99617.09;10375106;28;20628;-67
2023/08/18 03:39:18;;;;;;;15.63;11.05;;;;;;;19.82;63.01;99637.28;10378610;28;20232;-67
2023/08/18 03:44:20;;;;;;;12.75;11.45;;;;;;;19.97;63.16;99622.28;10335428;28;20236;-68
2023/08/18 03:49:22;;;;;;;12.85;11.52;;;;;;;20.91;60.57;99610.34;10343926;28;20233;-67
2023/08/18 03:54:24;;;;;;;13.10;11.20;;;;;;;20.95;60.39;99616.09;10341475;28;20237;-67
2023/08/18 03:59:25;;;;;;;12.48;11.00;;;;;;;22.07;57.76;99607.94;10344470;28;20887;-67
2023/08/18 04:04:27;;;;;;;18.83;10.93;;;;;;;21.27;59.02;99650.66;10383771;28;20323;-67
2023/08/18 04:09:29;;;;;;;12.27;10.75;;;;;;;21.49;59.05;99654.16;10345369;28;20229;-68
2023/08/18 04:14:30;;;;;;;10.80;9.70;;;;;;;23.31;53.91;99654.63;10343702;28;20933;-67
2023/08/18 04:19:32;;;;;;;9.95;8.70;;;;;;;23.89;52.64;99648.84;10340084;28;20226;-67
2023/08/18 04:24:34;;;;;;;11.18;8.32;;;;;;;21.98;55.96;99688.50;10345810;28;20292;-67
2023/08/18 04:29:35;;;;;;;10.77;8.88;;;;;;;21.89;55.75;99690.88;10383659;28;20324;-67
2023/08/18 04:34:37;;;;;;;10.48;9.38;;;;;;;20.98;58.31;99687.09;10348772;28;20327;-67
2023/08/18 04:39:39;;;;;;;8.98;8.07;;;;;;;20.53;60.16;99666.50;10345727;28;20233;-67
2023/08/18 04:44:40;;;;;;;10.95;9.68;;;;;;;20.12;61.15;99664.03;10344386;28;20233;-67
2023/08/18 04:49:42;;;;;;;12.07;10.00;;;;;;;19.76;62.28;99655.38;10345919;28;23418;-66
2023/08/18 04:54:44;;;;;;;11.07;9.68;;;;;;;19.54;62.50;99652.59;10341332;28;20742;-67
2023/08/18 04:59:45;;;;;;;11.07;9.93;;;;;;;20.04;61.69;99647.34;10345640;28;20300;-67
2023/08/18 05:04:47;;;;;;;11.02;9.98;;;;;;;19.94;61.62;99662.44;10346918;28;20241;-68
2023/08/18 05:09:49;;;;;;;10.85;9.75;;;;;;;21.06;59.04;99650.47;10342946;28;20292;-67
2023/08/18 05:14:51;;;;;;;10.85;9.40;;;;;;;20.07;61.13;99677.53;10344997;28;20226;-67
2023/08/18 05:19:52;;;;;;;12.10;10.05;;;;;;;19.73;62.13;99674.06;10341276;28;20260;-70
2023/08/18 05:24:55;;;;;;;12.77;9.65;;;;;;;20.15;61.28;99656.47;10345289;28;20235;-67
2023/08/18 05:29:57;;;;;;;9.68;8.68;;;;;;;20.61;60.23;99649.72;10345370;28;20205;-67
2023/08/18 05:34:59;;;;;;;11.63;9.68;;;;;;;20.81;59.75;99648.31;10339097;28;20221;-67
2023/08/18 05:40:00;;;;;;;10.63;9.30;;;;;;;21.35;58.98;99644.72;10348464;28;20212;-67
2023/08/18 05:45:03;;;;;;;10.18;8.65;;;;;;;20.52;59.55;99707.50;10345953;28;23400;-67
2023/08/18 05:50:08;;;;;;;9.55;8.55;;;;;;;20.98;58.76;99673.50;10341286;28;20256;-68
2023/08/18 05:55:10;;;;;;;9.95;8.55;;;;;;;21.21;59.03;99666.94;10340369;28;20969;-67
2023/08/18 06:00:13;;;;;;;10.05;7.93;;;;;;;21.63;57.24;99686.34;10342464;28;20252;-66
2023/08/18 06:05:15;;;;;;;11.40;7.90;;;;;;;23.85;52.80;99672.34;10335485;28;20243;-67
2023/08/18 06:10:16;;;;;;;7.85;6.97;;;;;;;22.54;55.51;99690.75;10355213;28;20319;-67
2023/08/18 06:15:20;;;;;;;8.02;7.22;;;;;;;22.31;55.38;99727.41;10344513;28;20241;-67
2023/08/18 06:20:22;;;;;;;9.75;7.40;;;;;;;23.94;53.76;99671.50;10343201;28;20240;-73
2023/08/18 06:25:23;;;;;;;8.48;6.32;;;;;;;24.30;53.23;99676.88;10343121;28;20237;-72
2023/08/18 06:30:25;;;;;;;7.60;6.82;;;;;;;23.59;53.37;99724.25;10341173;28;20237;-70
2023/08/18 06:35:26;;;;;;;7.85;7.05;;;;;;;22.90;55.56;99709.94;10342490;28;20261;-70
2023/08/18 06:40:28;;;;;;;7.78;6.97;;;;;;;21.87;56.67;99744.00;10343705;28;20237;-65
2023/08/18 06:45:30;;;;;;;8.65;6.78;;;;;;;24.43;52.98;99688.31;10338893;28;20228;-65
2023/08/18 06:50:32;;;;;;;7.70;6.90;;;;;;;22.38;56.05;99744.34;10343523;28;20315;-65
2023/08/18 06:55:34;;;;;;;7.70;6.45;;;;;;;23.29;54.11;99730.50;10345837;28;20414;-65
2023/08/18 07:00:54;;;;;;;7.65;6.45;;;;;;;22.97;54.75;99726.03;10341426;28;20717;-65
2023/08/18 07:05:58;;;;;;;7.18;6.45;;;;;;;23.72;52.81;99745.56;10343125;28;20225;-65
2023/08/18 07:11:00;;;;;;;8.73;5.95;;;;;;;23.96;53.65;99729.41;10342983;28;20320;-65
2023/08/18 07:16:02;;;;;;;7.30;5.53;;;;;;;23.41;55.08;99710.03;10340235;28;21060;-66
2023/08/18 07:21:04;;;;;;;8.10;5.80;;;;;;;24.72;52.19;99702.16;10342995;28;20240;-66
2023/08/18 07:26:06;;;;;;;7.50;5.18;;;;;;;24.92;51.71;99726.66;10346504;28;20240;-66
2023/08/18 07:31:08;;;;;;;6.75;5.30;;;;;;;23.69;52.72;99751.56;10347105;28;20236;-66
2023/08/18 07:36:09;;;;;;;8.35;5.40;;;;;;;25.47;50.06;99731.25;10345701;28;20229;-66
2023/08/18 07:41:11;;;;;;;10.18;5.30;;;;;;;26.09;49.52;99719.75;10346727;28;20237;-66
2023/08/18 07:46:13;;;;;;;6.50;5.32;;;;;;;24.69;51.89;99741.81;10347827;28;20315;-66
2023/08/18 07:51:15;;;;;;;7.43;5.40;;;;;;;25.36;50.25;99719.56;10350248;28;20229;-66
2023/08/18 07:56:17;;;;;;;8.40;5.95;;;;;;;23.14;54.66;99748.47;10351796;28;20264;-66
2023/08/18 08:01:19;;;;;;;7.07;6.32;;;;;;;25.55;50.14;99710.66;10353620;28;20708;-66
2023/08/18 08:06:21;;;;;;;8.68;6.50;;;;;;;25.18;51.51;99731.97;10349029;28;20248;-66
2023/08/18 08:11:22;;;;;;;7.22;6.07;;;;;;;25.98;50.10;99697.13;10347537;28;20237;-66
2023/08/18 08:16:24;;;;;;;6.47;5.15;;;;;;;26.09;50.10;99712.34;10352965;28;20503;-66
2023/08/18 08:21:26;;;;;;;9.70;5.95;;;;;;;24.03;54.20;99703.72;10344705;28;20318;-66
2023/08/18 08:26:28;;;;;;;8.88;6.43;;;;;;;25.92;50.76;99687.31;10346909;28;20280;-66
2023/08/18 08:31:29;;;;;;;7.57;5.78;;;;;;;26.38;49.58;99712.31;10342954;28;20312;-66
2023/08/18 08:36:34;;;;;;;8.00;5.90;;;;;;;25.23;51.95;99698.31;10345994;28;20712;-66
2023/08/18 08:41:35;;;;;;;7.78;5.55;;;;;;;25.64;49.87;99714.38;10347355;28;20228;-66
2023/08/18 08:46:37;;;;;;;6.78;5.70;;;;;;;26.39;49.82;99702.16;10346942;28;20245;-66
2023/08/18 08:51:44;;;;;;;10.50;6.75;;;;;;;26.04;50.63;99709.66;10346876;28;20236;-65
2023/08/18 08:56:49;;;;;;;8.32;6.07;;;;;;;25.58;50.38;99704.59;10342794;28;20772;-65
2023/08/18 09:01:52;;;;;;;8.82;5.85;;;;;;;26.47;48.87;99704.25;10345056;28;20229;-66
2023/08/18 09:06:54;;;;;;;7.55;4.93;;;;;;;26.80;48.98;99709.88;10342110;28;20249;-67
2023/08/18 09:12:06;;;;;;;8.32;6.07;;;;;;;26.67;49.32;99719.63;10346574;28;20781;-67
2023/08/18 09:17:08;;;;;;;9.55;5.22;;;;;;;25.74;50.70;99725.28;10342806;28;20240;-67
2023/08/18 09:22:11;;;;;;;6.43;5.18;;;;;;;26.34;49.13;99707.69;10339864;28;20241;-68
2023/08/18 09:27:14;;;;;;;6.13;5.40;;;;;;;26.80;48.74;99685.16;10336526;28;20238;-67
2023/08/18 09:32:16;;;;;;;9.65;5.00;;;;;;;26.45;49.17;99695.50;10342924;28;20256;-67
2023/08/18 09:37:18;;;;;;;14.07;6.45;;;;;;;27.08;47.48;99685.31;10340451;28;20257;-67
2023/08/18 09:42:23;;;;;;;8.55;5.20;;;;;;;26.91;47.71;99700.38;10342621;28;20229;-68
2023/08/18 09:47:29;;;;;;;6.88;4.78;;;;;;;27.23;47.21;99696.09;10343489;28;20393;-67
2023/08/18 09:52:33;;;;;;;5.30;4.60;;;;;;;27.27;47.57;99674.31;10340862;28;20233;-68
2023/08/18 09:58:00;;;;;;;4.88;4.10;;;;;;;27.90;45.84;99670.19;10340454;28;20237;-68
2023/08/18 10:03:04;;;;;;;7.13;4.38;;;;;;;27.23;47.31;99687.84;10314264;28;20254;-67
2023/08/18 10:08:06;;;;;;;5.80;4.40;;;;;;;27.75;46.13;99678.75;10336150;28;20260;-68
2023/08/18 10:13:08;;;;;;;6.15;4.47;;;;;;;27.67;45.97;99678.28;10342763;28;20295;-68
2023/08/18 10:18:11;;;;;;;7.25;3.83;;;;;;;28.26;46.11;99653.03;10340860;28;20230;-68
2023/08/18 10:23:15;;;;;;;5.43;4.10;;;;;;;28.69;44.67;99660.91;10340643;28;20242;-67
2023/08/18 10:28:18;;;;;;;5.20;4.28;;;;;;;27.95;44.56;99663.78;10339666;28;20233;-67
2023/08/18 10:33:30;;;;;;;6.50;4.00;;;;;;;27.00;46.25;99675.00;10342067;28;20225;-68
2023/08/18 10:38:36;;;;;;;4.75;3.70;;;;;;;27.38;45.11;99663.97;10341338;28;20221;-67
2023/08/18 10:43:53;;;;;;;4.53;3.80;;;;;;;28.40;45.17;99633.75;10344425;28;20237;-68
2023/08/18 10:48:54;;;;;;;5.10;3.92;;;;;;;26.83;45.51;99676.34;10336461;28;20312;-68
2023/08/18 10:53:56;;;;;;;7.32;4.07;;;;;;;26.89;44.97;99666.94;10342717;28;20229;-67
2023/08/18 10:58:58;;;;;;;5.63;3.65;;;;;;;28.39;44.24;99621.94;10342850;28;20225;-68
2023/08/18 11:06:19;;;;;;;6.45;4.00;;;;;;;25.84;48.03;99593.66;10456777;28;21222;-67
2023/08/18 11:11:21;;;;;;;6.28;3.78;;;;;;;26.27;46.52;99578.34;10453760;28;20231;-67
2023/08/18 11:16:23;;;;;;;3.60;3.30;;;;;;;26.23;47.95;99593.75;10456691;28;20376;-67
2023/08/18 11:21:27;;;;;;;4.82;3.70;;;;;;;26.84;46.89;99568.19;10457931;28;20951;-67
2023/08/18 11:26:29;;;;;;;5.47;3.55;;;;;;;26.49;47.48;99596.97;10455226;28;20283;-67
2023/08/18 11:31:31;;;;;;;4.95;3.60;;;;;;;26.72;46.68;99585.13;10457869;28;20277;-67
2023/08/18 11:36:32;;;;;;;7.93;4.38;;;;;;;26.99;46.49;99569.88;10456340;28;20334;-67
2023/08/18 11:41:44;;;;;;;4.70;3.85;;;;;;;26.97;46.58;99569.34;10452779;28;20224;-67
2023/08/18 11:46:46;;;;;;;4.88;3.45;;;;;;;26.82;44.89;99580.56;10458396;28;20297;-67
2023/08/18 11:51:55;;;;;;;5.80;3.67;;;;;;;27.35;44.51;99593.19;10462716;28;20251;-67
2023/08/18 11:56:57;;;;;;;3.20;2.83;;;;;;;27.83;44.06;99579.91;10457467;28;20234;-67
2023/08/18 12:02:06;;;;;;;5.18;3.55;;;;;;;26.12;44.78;99618.53;10454105;28;20862;-67
2023/08/18 12:07:07;;;;;;;5.80;3.35;;;;;;;27.88;42.25;99589.97;10458153;28;20239;-67
2023/08/18 12:12:14;;;;;;;6.63;3.05;;;;;;;27.13;44.44;99589.13;10456011;28;20860;-67
2023/08/18 12:17:15;;;;;;;7.22;3.35;;;;;;;28.03;42.73;99573.16;10427799;28;20713;-68
2023/08/18 12:22:17;;;;;;;4.45;2.75;;;;;;;28.32;44.19;99563.75;10426244;28;20675;-67
2023/08/18 12:27:23;;;;;;;3.97;3.03;;;;;;;27.41;41.43;99597.44;10429074;28;20242;-67
2023/08/18 12:32:25;;;;;;;6.80;3.65;;;;;;;28.22;43.30;99561.22;10425229;28;20236;-68
2023/08/18 12:37:28;;;;;;;5.53;3.35;;;;;;;28.48;42.09;99560.66;10424264;28;20247;-67
2023/08/18 12:42:30;;;;;;;4.93;3.33;;;;;;;28.92;41.40;99559.88;10421556;28;20228;-67
2023/08/18 12:47:33;;;;;;;4.85;2.70;;;;;;;28.34;40.03;99582.69;10424389;28;20251;-68
2023/08/18 12:52:35;;;;;;;3.72;2.95;;;;;;;28.73;41.35;99562.03;10425946;28;20231;-67
2023/08/18 12:57:37;;;;;;;4.90;3.42;;;;;;;28.62;41.03;99528.38;10429505;28;20262;-67
2023/08/18 13:02:38;;;;;;;4.22;2.70;;;;;;;28.47;40.73;99559.03;10427370;28;20235;-67
2023/08/18 13:07:40;;;;;;;4.72;3.10;;;;;;;28.68;40.33;99565.72;10430173;28;20319;-67
2023/08/18 13:12:42;;;;;;;5.25;2.95;;;;;;;27.88;39.99;99570.72;10431565;28;20710;-67
2023/08/18 13:17:43;;;;;;;6.43;2.85;;;;;;;29.19;39.85;99551.81;10426741;28;20242;-67
2023/08/18 13:22:45;;;;;;;6.78;3.00;;;;;;;29.71;39.57;99541.00;10430365;28;20224;-68
2023/08/18 13:27:47;;;;;;;3.47;2.55;;;;;;;29.08;39.35;99560.31;10421176;28;20330;-68
2023/08/18 13:32:48;;;;;;;4.15;2.40;;;;;;;29.60;38.66;99546.00;10423846;28;20269;-68
2023/08/18 13:37:50;;;;;;;2.90;2.13;;;;;;;28.89;38.95;99554.19;10420120;28;20232;-68
2023/08/18 13:42:53;;;;;;;6.63;2.65;;;;;;;29.79;37.84;99542.97;10424486;28;20355;-68
2023/08/18 13:47:55;;;;;;;5.22;2.83;;;;;;;28.69;38.44;99550.00;10424394;28;20690;-67
2023/08/18 13:52:57;;;;;;;4.60;3.13;;;;;;;29.34;39.63;99521.06;10425127;28;20246;-67
2023/08/18 13:57:59;;;;;;;6.03;2.85;;;;;;;29.23;39.25;99504.00;10416559;28;20319;-67
2023/08/18 14:03:00;;;;;;;4.20;2.60;;;;;;;29.25;39.57;99496.25;10420543;28;20384;-67
2023/08/18 14:08:03;;;;;;;5.75;2.40;;;;;;;29.88;39.13;99499.69;10422237;28;20733;-68
2023/08/18 14:13:05;;;;;;;4.32;2.97;;;;;;;30.06;38.86;99519.84;10423797;28;20702;-68
2023/08/18 14:18:07;;;;;;;5.47;2.75;;;;;;;29.82;39.90;99489.13;10423092;28;20236;-68
2023/08/18 14:23:09;;;;;;;5.20;2.60;;;;;;;30.31;39.31;99494.53;10422127;28;20305;-68
2023/08/18 14:28:10;;;;;;;7.40;2.72;;;;;;;30.16;39.67;99468.25;10414496;28;20319;-67
2023/08/18 14:33:12;;;;;;;4.35;2.85;;;;;;;30.11;38.52;99466.44;10419559;28;20306;-68
2023/08/18 14:38:14;;;;;;;4.00;2.63;;;;;;;29.83;39.83;99480.53;10421673;28;20276;-68
2023/08/18 14:43:15;;;;;;;5.53;2.88;;;;;;;30.06;39.21;99472.13;10421691;28;20581;-67
2023/08/18 14:48:18;;;;;;;6.30;2.90;;;;;;;29.80;39.65;99494.97;10423806;28;20241;-68
2023/08/18 14:53:20;;;;;;;3.92;2.72;;;;;;;30.59;38.99;99451.66;10419164;28;20230;-68
2023/08/18 14:58:28;;;;;;;6.97;2.80;;;;;;;30.46;38.79;99460.91;10418439;28;20231;-68
2023/08/18 15:03:29;;;;;;;4.07;2.65;;;;;;;30.68;39.26;99462.69;10418243;28;20236;-68
2023/08/18 15:08:31;;;;;;;6.43;2.70;;;;;;;30.65;38.81;99459.75;10414768;28;20256;-68
2023/08/18 15:13:33;;;;;;;4.43;2.78;;;;;;;30.37;37.81;99471.16;10418289;28;20235;-68
2023/08/18 15:18:34;;;;;;;3.53;2.45;;;;;;;30.24;39.10;99472.94;10425338;28;20318;-68
2023/08/18 15:23:36;;;;;;;6.85;2.72;;;;;;;30.59;39.43;99459.94;10411054;28;21107;-68
2023/08/18 15:28:38;;;;;;;4.32;2.50;;;;;;;30.47;38.79;99457.03;10416533;28;20312;-68
2023/08/18 15:33:43;;;;;;;4.28;2.53;;;;;;;29.85;38.83;99472.75;10413538;28;20347;-67
2023/08/18 15:38:44;;;;;;;4.20;2.50;;;;;;;30.64;38.70;99438.84;10417083;28;20318;-67
2023/08/18 15:43:46;;;;;;;5.90;3.03;;;;;;;30.66;38.76;99442.88;10422931;28;20234;-67
2023/08/18 15:48:48;;;;;;;4.88;2.50;;;;;;;30.70;38.47;99456.81;10418932;28;20435;-67
2023/08/18 15:53:49;;;;;;;4.75;2.50;;;;;;;30.32;38.12;99465.81;10426369;28;20318;-67
2023/08/18 15:58:51;;;;;;;5.43;2.53;;;;;;;30.39;39.05;99444.84;10427455;28;20282;-67
2023/08/18 16:03:53;;;;;;;4.32;2.42;;;;;;;31.13;37.65;99439.31;10426391;28;20791;-67
2023/08/18 16:08:54;;;;;;;6.47;2.30;;;;;;;31.42;38.62;99441.28;10420551;28;20290;-67
2023/08/18 16:13:56;;;;;;;3.72;2.20;;;;;;;31.49;37.34;99421.41;10423147;28;20232;-66
2023/08/18 16:19:18;;;;;;;5.45;2.65;;;;;;;31.28;38.04;99449.00;10426011;28;20302;-66
2023/08/18 16:24:19;;;;;;;4.32;2.22;;;;;;;31.35;38.83;99444.56;10420840;28;20807;-66
2023/08/18 16:29:21;;;;;;;4.25;2.55;;;;;;;31.81;38.33;99419.06;10418399;28;20232;-66
2023/08/18 16:34:25;;;;;;;6.75;2.58;;;;;;;31.76;39.37;99428.38;10423318;28;20324;-67
2023/08/18 16:39:28;;;;;;;5.15;2.25;;;;;;;32.28;38.65;99410.56;10426366;28;20323;-67
2023/08/18 16:44:30;;;;;;;5.30;2.65;;;;;;;32.65;38.15;99407.88;10419863;28;20227;-66
2023/08/18 16:49:32;;;;;;;4.13;2.05;;;;;;;30.50;38.64;99472.97;10424607;28;20319;-67
2023/08/18 16:54:34;;;;;;;2.50;2.30;;;;;;;31.40;38.11;99462.13;10424283;28;20238;-66
2023/08/18 16:59:36;;;;;;;5.03;2.30;;;;;;;31.95;37.00;99443.72;10420747;28;20322;-67
2023/08/18 17:04:38;;;;;;;4.35;2.53;;;;;;;32.96;37.02;99442.56;10423551;28;20338;-66
2023/08/18 17:09:40;;;;;;;7.28;2.47;;;;;;;31.21;38.43;99449.53;10420215;28;20734;-66
2023/08/18 17:14:41;;;;;;;8.55;3.08;;;;;;;33.43;36.57;99428.25;10423343;28;20253;-67
2023/08/18 17:19:44;;;;;;;4.43;2.75;;;;;;;32.77;38.12;99441.16;10421783;28;20227;-67
2023/08/18 17:24:46;;;;;;;4.43;2.22;;;;;;;31.97;38.88;99466.31;10426655;28;20227;-67
2023/08/18 17:29:47;;;;;;;5.90;2.92;;;;;;;32.71;38.63;99431.47;10422889;28;20235;-66
2023/08/18 17:34:49;;;;;;;4.72;2.50;;;;;;;32.85;38.14;99427.56;10425406;28;20391;-67
2023/08/18 17:39:50;;;;;;;6.70;2.75;;;;;;;32.24;38.01;99457.47;10422931;28;20231;-67
2023/08/18 17:44:52;;;;;;;3.88;2.65;;;;;;;30.98;38.97;99482.91;10422107;28;20315;-65
2023/08/18 17:49:54;;;;;;;3.17;2.30;;;;;;;31.17;38.65;99467.91;10422413;28;20299;-66
2023/08/18 17:54:55;;;;;;;5.68;3.03;;;;;;;31.85;38.34;99447.69;10425118;28;20229;-66
2023/08/18 17:59:57;;;;;;;7.40;2.25;;;;;;;31.57;38.40;99455.69;10416596;28;20326;-66
2023/08/18 18:04:59;;;;;;;3.55;2.42;;;;;;;31.78;37.70;99442.69;10423963;28;20240;-66
2023/08/18 18:10:03;;;;;;;4.05;2.10;;;;;;;31.12;38.41;99476.38;10419608;28;20211;-66
2023/08/18 18:15:05;;;;;;;5.50;2.40;;;;;;;30.50;38.66;99470.19;10415771;28;20227;-66
2023/08/18 18:20:07;;;;;;;5.60;2.22;;;;;;;30.39;39.00;99435.75;10421662;28;20295;-66
2023/08/18 18:25:09;;;;;;;5.90;2.17;;;;;;;29.85;40.15;99463.66;10421506;28;20240;-67
2023/08/18 18:30:13;;;;;;;3.75;2.30;;;;;;;30.78;39.47;99434.72;10424153;28;20215;-67
2023/08/18 18:35:19;;;;;;;6.05;2.55;;;;;;;30.42;39.55;99463.50;10421769;28;20244;-66
2023/08/18 18:40:22;;;;;;;4.20;2.42;;;;;;;30.06;40.17;99463.84;10423469;28;20732;-67
2023/08/18 18:45:24;;;;;;;4.45;2.30;;;;;;;28.72;41.87;99483.31;10424461;28;20634;-66
2023/08/18 18:50:25;;;;;;;5.55;2.95;;;;;;;28.75;42.58;99450.47;10425179;28;20242;-66
2023/08/18 18:55:27;;;;;;;5.82;2.72;;;;;;;28.76;43.35;99456.75;10418839;28;20232;-66
2023/08/18 19:00:29;;;;;;;4.57;2.88;;;;;;;28.34;44.36;99450.66;10425644;28;20243;-66
2023/08/18 19:05:39;;;;;;;7.25;2.70;;;;;;;29.69;41.01;99444.00;10419640;28;20236;-66
2023/08/18 19:10:41;;;;;;;4.95;2.60;;;;;;;29.14;41.90;99451.63;10418469;28;20325;-66
2023/08/18 19:15:43;;;;;;;5.47;2.30;;;;;;;28.38;42.52;99460.72;10422329;28;20259;-66
2023/08/18 19:20:45;;;;;;;6.60;2.42;;;;;;;28.47;41.26;99459.97;10418677;28;20735;-67
2023/08/18 19:25:46;;;;;;;3.28;2.58;;;;;;;27.82;42.17;99484.81;10420624;28;20231;-67
2023/08/18 19:30:48;;;;;;;4.57;2.67;;;;;;;27.83;42.25;99474.63;10431431;28;20322;-67
2023/08/18 19:35:50;;;;;;;4.93;2.33;;;;;;;27.61;43.14;99456.91;10423879;28;20957;-67
2023/08/18 19:40:55;;;;;;;6.30;2.92;;;;;;;26.68;43.83;99468.78;10427134;28;20228;-67
2023/08/18 19:46:00;;;;;;;3.75;2.47;;;;;;;27.77;43.93;99448.38;10429696;28;20242;-67
2023/08/18 19:51:02;;;;;;;5.70;2.65;;;;;;;27.54;44.42;99451.03;10422247;28;20790;-66
2023/08/18 19:56:04;;;;;;;4.85;2.80;;;;;;;26.39;45.88;99469.81;10427897;28;20734;-67
2023/08/18 20:01:06;;;;;;;5.43;2.50;;;;;;;27.48;44.01;99444.84;10429176;28;20232;-66
2023/08/18 20:06:08;;;;;;;8.30;2.75;;;;;;;27.23;43.66;99459.91;10428129;28;20873;-66
2023/08/18 20:11:10;;;;;;;4.35;2.40;;;;;;;26.73;44.27;99478.91;10427339;28;20228;-66
2023/08/18 20:16:12;;;;;;;5.32;2.50;;;;;;;26.28;44.97;99494.97;10429078;28;20330;-66
2023/08/18 20:21:13;;;;;;;5.72;2.75;;;;;;;26.90;44.91;99481.88;10424201;28;20232;-75
2023/08/18 20:26:15;;;;;;;7.53;2.95;;;;;;;26.70;46.28;99466.56;10424028;28;20928;-76
2023/08/18 20:31:17;;;;;;;3.63;2.70;;;;;;;25.77;47.39;99489.06;10425149;28;20266;-76
2023/08/18 20:36:18;;;;;;;5.97;2.75;;;;;;;26.78;46.02;99489.00;10430814;28;20243;-76
2023/08/18 20:41:20;;;;;;;4.63;3.10;;;;;;;26.81;46.23;99466.44;10430161;28;20347;-75
2023/08/18 20:46:23;;;;;;;4.00;2.40;;;;;;;26.48;46.57;99500.13;10426509;28;20242;-75
2023/08/18 20:51:24;;;;;;;7.05;3.00;;;;;;;26.51;46.75;99501.47;10426214;28;20592;-75
2023/08/18 20:56:26;;;;;;;4.25;3.03;;;;;;;25.96;46.34;99496.47;10422853;28;20267;-76
2023/08/18 21:01:29;;;;;;;7.43;3.10;;;;;;;26.00;45.78;99503.03;10424618;28;20322;-76
2023/08/18 21:06:31;;;;;;;4.60;2.47;;;;;;;26.45;44.90;99475.22;10422857;28;20243;-77
2023/08/18 21:11:33;;;;;;;6.53;2.58;;;;;;;25.64;45.88;99514.41;10426317;28;20794;-76
2023/08/18 21:16:35;;;;;;;3.10;2.30;;;;;;;27.28;43.61;99467.22;10426589;28;20235;-75
2023/08/18 21:21:37;;;;;;;5.13;2.58;;;;;;;26.62;44.38;99502.09;10424337;28;20801;-76
2023/08/18 21:26:38;;;;;;;4.68;2.50;;;;;;;27.25;43.49;99476.06;10423408;28;20600;-75
2023/08/18 21:31:40;;;;;;;4.00;2.28;;;;;;;27.84;42.68;99470.75;10419314;28;21047;-75
2023/08/18 21:36:42;;;;;;;3.33;2.45;;;;;;;25.66;45.24;99514.94;10424042;28;20298;-76
2023/08/18 21:41:43;;;;;;;3.67;2.47;;;;;;;27.77;43.29;99462.13;10425109;28;20330;-75
2023/08/18 21:46:45;;;;;;;3.85;2.25;;;;;;;27.52;42.98;99471.69;10421243;28;20339;-75
2023/08/18 21:51:47;;;;;;;6.68;2.80;;;;;;;27.91;43.25;99464.84;10421949;28;20731;-75
2023/08/18 21:56:50;;;;;;;5.68;2.65;;;;;;;25.88;46.17;99517.16;10424252;28;20251;-75
2023/08/18 22:01:52;;;;;;;5.97;2.83;;;;;;;23.97;50.13;99487.88;10422480;28;20240;-76
2023/08/18 22:06:54;;;;;;;6.50;3.38;;;;;;;25.09;49.18;99449.81;10422638;28;20235;-75
2023/08/18 22:11:55;;;;;;;4.43;3.20;;;;;;;24.92;48.42;99487.78;10421710;28;20312;-66
2023/08/18 22:16:57;;;;;;;4.30;3.42;;;;;;;24.11;50.37;99477.13;10421979;28;20230;-67
2023/08/18 22:21:59;;;;;;;3.90;3.00;;;;;;;23.56;51.66;99481.75;10423368;28;20233;-67
2023/08/18 22:27:00;;;;;;;5.55;3.22;;;;;;;23.04;53.20;99470.97;10419904;28;20318;-67
2023/08/18 22:32:02;;;;;;;7.53;3.40;;;;;;;22.85;53.16;99473.41;10422824;28;20222;-66
2023/08/18 22:37:04;;;;;;;5.82;3.50;;;;;;;23.01;52.34;99487.88;10415366;28;20235;-69
2023/08/18 22:42:06;;;;;;;6.25;3.05;;;;;;;23.23;52.08;99500.44;10419290;28;20224;-69
2023/08/18 22:47:13;;;;;;;6.38;3.33;;;;;;;22.14;53.33;99513.13;10422661;28;20223;-69
2023/08/18 22:52:15;;;;;;;4.63;3.25;;;;;;;22.32;53.17;99494.66;10419619;28;20274;-68
2023/08/18 22:57:16;;;;;;;6.85;3.63;;;;;;;22.37;52.94;99513.75;10416087;28;20242;-69
2023/08/18 23:02:18;;;;;;;5.05;3.78;;;;;;;22.51;52.71;99503.16;10419404;28;20729;-69
2023/08/18 23:07:20;;;;;;;6.55;3.55;;;;;;;22.86;51.54;99520.63;10421664;28;20275;-66
2023/08/18 23:12:21;;;;;;;6.72;3.58;;;;;;;23.47;50.70;99508.00;10419405;28;20232;-69
2023/08/18 23:17:23;;;;;;;5.78;3.67;;;;;;;22.62;52.97;99506.69;10421241;28;20262;-68
2023/08/18 23:22:25;;;;;;;10.00;3.20;;;;;;;22.73;52.61;99511.06;10424064;28;20231;-68
2023/08/18 23:27:27;;;;;;;8.82;3.53;;;;;;;22.53;52.59;99518.13;10419433;28;20228;-69